createdAt,value
2019-04-01T00:01:36.187Z,33.00
2019-04-01T00:04:04.473Z,32.90
2019-04-01T00:06:30.988Z,32.90
2019-04-01T00:08:57.494Z,32.60
2019-04-01T00:11:23.918Z,32.90
2019-04-01T00:13:50.307Z,34.30
2019-04-01T00:16:16.614Z,33.80
2019-04-01T00:18:43.018Z,34.10
2019-04-01T00:21:09.458Z,34.30
2019-04-01T00:23:35.774Z,34.50
2019-04-01T00:26:02.239Z,34.70
2019-04-01T00:28:28.688Z,34.10
2019-04-01T00:30:55.194Z,33.90
2019-04-01T00:33:21.527Z,33.40
2019-04-01T00:35:47.905Z,33.40
2019-04-01T00:38:14.448Z,34.50
2019-04-01T00:40:41.043Z,33.80
2019-04-01T00:43:09.358Z,33.60
2019-04-01T00:45:40.294Z,33.60
2019-04-01T00:48:06.599Z,33.60
2019-04-01T00:50:33.136Z,33.50
2019-04-01T00:52:59.634Z,33.50
2019-04-01T00:55:26.156Z,33.50
2019-04-01T00:57:52.737Z,33.60
2019-04-01T01:00:19.798Z,33.70
2019-04-01T01:02:46.327Z,34.00
2019-04-01T01:05:12.639Z,34.30
2019-04-01T01:07:39.366Z,34.10
2019-04-01T01:10:06.555Z,34.60
2019-04-01T01:12:33.092Z,34.00
2019-04-01T01:15:00.799Z,33.90
2019-04-01T01:17:27.422Z,34.00
2019-04-01T01:19:53.917Z,34.90
2019-04-01T01:22:20.338Z,34.00
2019-04-01T01:24:46.836Z,33.90
2019-04-01T01:27:13.271Z,34.00
2019-04-01T01:29:39.690Z,35.00
2019-04-01T01:32:06.103Z,34.30
2019-04-01T01:34:32.617Z,34.50
2019-04-01T01:36:59.118Z,34.40
2019-04-01T01:39:25.551Z,34.70
2019-04-01T01:42:02.943Z,34.60
2019-04-01T01:44:29.469Z,34.70
2019-04-01T01:46:55.843Z,34.40
2019-04-01T01:49:22.181Z,34.70
2019-04-01T01:51:48.570Z,34.60
2019-04-01T01:54:15.213Z,34.40
2019-04-01T01:56:42.024Z,34.10
2019-04-01T01:59:08.357Z,34.50
2019-04-01T02:01:34.791Z,35.00
2019-04-01T02:04:01.385Z,35.00
2019-04-01T02:06:27.899Z,34.90
2019-04-01T02:08:54.299Z,35.20
2019-04-01T02:11:20.733Z,35.50
2019-04-01T02:13:47.049Z,35.80
2019-04-01T02:16:13.607Z,35.70
2019-04-01T02:18:39.903Z,35.80
2019-04-01T02:21:06.181Z,35.80
2019-04-01T02:23:32.611Z,35.70
2019-04-01T02:25:59.009Z,35.70
2019-04-01T02:28:38.412Z,36.30
2019-04-01T02:31:04.983Z,36.70
2019-04-01T02:33:31.424Z,36.90
2019-04-01T02:35:57.835Z,36.60
2019-04-01T02:38:24.384Z,37.00
2019-04-01T02:40:50.787Z,37.20
2019-04-01T02:43:17.176Z,37.80
2019-04-01T02:45:43.705Z,38.30
2019-04-01T02:48:10.213Z,38.80
2019-04-01T02:50:36.766Z,37.60
2019-04-01T02:53:03.376Z,37.80
2019-04-01T02:55:29.987Z,37.60
2019-04-01T02:57:56.657Z,37.70
2019-04-01T03:00:23.383Z,37.70
2019-04-01T03:02:51.050Z,38.20
2019-04-01T03:05:17.374Z,37.40
2019-04-01T03:07:43.860Z,37.40
2019-04-01T03:10:10.394Z,37.40
2019-04-01T03:12:36.711Z,38.10
2019-04-01T03:15:05.052Z,38.00
2019-04-01T03:17:31.665Z,37.90
2019-04-01T03:19:58.096Z,38.00
2019-04-01T03:22:44.449Z,38.20
2019-04-01T03:25:11.391Z,38.20
2019-04-01T03:27:37.681Z,38.70
2019-04-01T03:30:04.707Z,39.10
2019-04-01T03:32:31.454Z,38.80
2019-04-01T03:34:58.000Z,38.80
2019-04-01T03:37:24.739Z,38.70
2019-04-01T03:39:51.230Z,38.60
2019-04-01T03:42:17.754Z,39.10
2019-04-01T03:44:44.362Z,38.80
2019-04-01T03:47:10.877Z,39.00
2019-04-01T03:49:37.383Z,38.90
2019-04-01T03:52:14.891Z,38.90
2019-04-01T03:54:41.328Z,39.30
2019-04-01T03:57:07.980Z,39.50
2019-04-01T03:59:34.482Z,39.60
2019-04-01T04:02:00.882Z,39.80
2019-04-01T04:04:40.135Z,40.10
2019-04-01T04:07:06.572Z,40.50
2019-04-01T04:09:33.076Z,40.20
2019-04-01T04:11:59.614Z,42.30
2019-04-01T04:14:26.126Z,43.80
2019-04-01T04:16:52.584Z,41.60
2019-04-01T04:19:18.901Z,40.70
2019-04-01T04:22:05.173Z,40.20
2019-04-01T04:24:31.682Z,39.80
2019-04-01T04:26:58.261Z,39.10
2019-04-01T04:29:25.007Z,38.90
2019-04-01T04:31:51.312Z,38.30
2019-04-01T04:34:17.794Z,37.80
2019-04-01T04:36:44.209Z,37.50
2019-04-01T04:39:10.806Z,37.30
2019-04-01T04:41:37.341Z,37.30
2019-04-01T04:44:03.726Z,36.80
2019-04-01T04:46:30.263Z,36.90
2019-04-01T04:48:56.858Z,37.00
2019-04-01T04:51:43.147Z,37.00
2019-04-01T04:54:11.072Z,36.80
2019-04-01T04:56:37.411Z,36.80
2019-04-01T04:59:04.512Z,36.90
2019-04-01T05:01:31.067Z,36.60
2019-04-01T05:03:57.681Z,36.80
2019-04-01T05:06:24.084Z,36.90
2019-04-01T05:08:50.505Z,36.80
2019-04-01T05:11:17.120Z,37.00
2019-04-01T05:13:43.652Z,36.90
2019-04-01T05:16:10.168Z,36.60
2019-04-01T05:18:36.891Z,36.70
2019-04-01T05:21:03.613Z,36.70
2019-04-01T05:23:30.229Z,36.90
2019-04-01T05:25:56.970Z,36.60
2019-04-01T05:28:25.487Z,36.70
2019-04-01T05:30:51.994Z,36.60
2019-04-01T05:33:22.212Z,37.00
2019-04-01T05:35:48.804Z,37.40
2019-04-01T05:38:15.455Z,37.50
2019-04-01T05:40:42.047Z,37.60
2019-04-01T05:43:08.990Z,37.50
2019-04-01T05:45:35.410Z,37.50
2019-04-01T05:48:02.262Z,37.60
2019-04-01T05:50:28.987Z,37.90
2019-04-01T05:52:55.536Z,37.90
2019-04-01T05:55:21.950Z,38.20
2019-04-01T05:57:48.589Z,37.90
2019-04-01T06:00:20.798Z,38.00
2019-04-01T06:02:47.191Z,37.70
2019-04-01T06:05:13.890Z,38.20
2019-04-01T06:07:40.309Z,38.50
2019-04-01T06:10:06.911Z,39.30
2019-04-01T06:12:33.996Z,40.20
2019-04-01T06:15:04.262Z,40.30
2019-04-01T06:17:30.834Z,40.30
2019-04-01T06:19:57.860Z,40.70
2019-04-01T06:22:24.585Z,41.40
2019-04-01T06:24:51.200Z,42.10
2019-04-01T06:27:17.814Z,42.30
2019-04-01T06:29:44.346Z,41.50
2019-04-01T06:32:10.754Z,41.70
2019-04-01T06:34:37.178Z,41.70
2019-04-01T06:37:04.098Z,42.00
2019-04-01T06:39:30.670Z,42.40
2019-04-01T06:41:57.660Z,42.90
2019-04-01T06:44:24.158Z,43.50
2019-04-01T06:47:01.228Z,43.00
2019-04-01T06:49:27.790Z,43.60
2019-04-01T06:51:54.372Z,43.80
2019-04-01T06:54:20.649Z,43.80
2019-04-01T06:56:47.048Z,41.90
2019-04-01T06:59:13.560Z,41.40
2019-04-01T07:01:40.101Z,41.00
2019-04-01T07:04:06.724Z,40.70
2019-04-01T07:06:33.352Z,39.50
2019-04-01T07:09:00.677Z,40.10
2019-04-01T07:11:27.542Z,39.00
2019-04-01T07:13:54.133Z,37.70
2019-04-01T07:16:20.616Z,36.60
2019-04-01T07:18:47.139Z,36.90
2019-04-01T07:21:13.749Z,36.40
2019-04-01T07:23:40.069Z,36.40
2019-04-01T07:26:06.573Z,36.80
2019-04-01T07:28:33.185Z,36.20
2019-04-01T07:31:00.000Z,36.40
2019-04-01T07:33:26.426Z,36.10
2019-04-01T07:35:52.930Z,36.20
2019-04-01T07:38:19.737Z,36.20
2019-04-01T07:40:46.272Z,35.00
2019-04-01T07:43:14.951Z,35.60
2019-04-01T07:45:41.174Z,35.50
2019-04-01T07:48:07.705Z,36.10
2019-04-01T07:50:34.239Z,35.70
2019-04-01T07:53:00.839Z,35.60
2019-04-01T07:55:27.293Z,36.60
2019-04-01T07:57:53.976Z,35.80
2019-04-01T08:00:20.510Z,35.70
2019-04-01T08:02:48.989Z,36.10
2019-04-01T08:05:15.710Z,35.90
2019-04-01T08:07:42.169Z,35.40
2019-04-01T08:10:08.790Z,35.70
2019-04-01T08:12:35.162Z,34.40
2019-04-01T08:15:03.318Z,34.70
2019-04-01T08:17:31.036Z,34.90
2019-04-01T08:19:57.697Z,35.20
2019-04-01T08:22:24.322Z,34.80
2019-04-01T08:24:51.918Z,35.10
2019-04-01T08:27:19.860Z,35.70
2019-04-01T08:29:46.460Z,34.60
2019-04-01T08:32:14.005Z,34.70
2019-04-01T08:34:40.824Z,34.70
2019-04-01T08:37:07.394Z,34.50
2019-04-01T08:39:33.998Z,34.70
2019-04-01T08:42:01.195Z,34.20
2019-04-01T08:44:27.514Z,33.80
2019-04-01T08:46:54.624Z,33.70
2019-04-01T08:49:21.124Z,33.30
2019-04-01T08:51:47.626Z,33.70
2019-04-01T08:54:14.036Z,33.40
2019-04-01T08:56:40.538Z,33.80
2019-04-01T08:59:07.437Z,33.60
2019-04-01T09:01:35.479Z,33.70
2019-04-01T09:04:02.319Z,33.00
2019-04-01T09:06:31.348Z,33.10
2019-04-01T09:08:59.624Z,32.80
2019-04-01T09:11:27.056Z,33.00
2019-04-01T09:13:54.255Z,32.90
2019-04-01T09:16:21.664Z,33.50
2019-04-01T09:18:48.077Z,33.30
2019-04-01T09:21:14.609Z,33.50
2019-04-01T09:23:41.099Z,33.10
2019-04-01T09:26:07.676Z,32.80
2019-04-01T09:28:34.214Z,32.70
2019-04-01T09:31:00.702Z,32.90
2019-04-01T09:33:27.025Z,32.80
2019-04-01T09:35:53.413Z,33.00
2019-04-01T09:38:30.384Z,32.90
2019-04-01T09:40:56.701Z,32.80
2019-04-01T09:43:23.344Z,33.20
2019-04-01T09:45:49.742Z,33.20
2019-04-01T09:48:16.190Z,33.70
2019-04-01T09:50:42.585Z,33.10
2019-04-01T09:53:09.094Z,32.80
2019-04-01T09:55:35.577Z,32.40
2019-04-01T09:58:21.878Z,32.50
2019-04-01T10:00:53.033Z,33.60
2019-04-01T10:03:18.892Z,33.60
2019-04-01T10:05:45.646Z,33.20
2019-04-01T10:08:12.174Z,33.00
2019-04-01T10:10:38.898Z,33.50
2019-04-01T10:13:05.403Z,33.40
2019-04-01T10:15:32.024Z,32.60
2019-04-01T10:17:58.356Z,33.50
2019-04-01T10:20:24.942Z,32.80
2019-04-01T10:22:51.616Z,33.40
2019-04-01T10:25:18.124Z,33.50
2019-04-01T10:27:44.809Z,33.70
2019-04-01T10:30:11.912Z,32.50
2019-04-01T10:32:38.696Z,33.30
2019-04-01T10:35:06.610Z,33.50
2019-04-01T10:37:33.345Z,34.10
2019-04-01T10:40:00.316Z,33.40
2019-04-01T10:42:27.387Z,32.90
2019-04-01T10:44:54.080Z,32.70
2019-04-01T10:47:20.657Z,33.60
2019-04-01T10:49:47.327Z,33.40
2019-04-01T10:52:13.825Z,32.00
2019-04-01T10:54:40.506Z,32.70
2019-04-01T10:57:07.183Z,32.90
2019-04-01T10:59:33.824Z,32.20
2019-04-01T11:02:00.262Z,32.60
2019-04-01T11:04:26.915Z,32.10
2019-04-01T11:06:53.598Z,32.10
2019-04-01T11:09:20.363Z,31.40
2019-04-01T11:11:46.937Z,31.80
2019-04-01T11:14:13.733Z,31.90
2019-04-01T11:16:40.182Z,31.60
2019-04-01T11:19:06.870Z,31.00
2019-04-01T11:21:33.937Z,31.10
2019-04-01T11:24:02.007Z,31.50
2019-04-01T11:26:28.790Z,31.80
2019-04-01T11:28:55.337Z,32.60
2019-04-01T11:31:22.002Z,32.40
2019-04-01T11:33:48.605Z,32.30
2019-04-01T11:36:15.184Z,34.20
2019-04-01T11:38:41.729Z,32.10
2019-04-01T11:41:08.460Z,30.70
2019-04-01T11:43:35.754Z,31.50
2019-04-01T11:46:02.904Z,30.70
2019-04-01T11:48:29.532Z,31.10
2019-04-01T11:50:56.009Z,32.00
2019-04-01T11:53:33.622Z,29.70
2019-04-01T11:56:00.235Z,30.00
2019-04-01T11:58:26.824Z,29.60
2019-04-01T12:00:53.528Z,28.90
2019-04-01T12:03:22.089Z,29.00
2019-04-01T12:05:49.220Z,29.70
2019-04-01T12:08:18.912Z,29.30
2019-04-01T12:10:50.249Z,29.50
2019-04-01T12:13:18.416Z,28.90
2019-04-01T12:15:45.351Z,29.00
2019-04-01T12:18:11.927Z,29.80
2019-04-01T12:20:38.609Z,30.30
2019-04-01T12:23:05.273Z,29.50
2019-04-01T12:25:31.970Z,30.70
2019-04-01T12:27:58.730Z,29.70
2019-04-01T12:30:25.417Z,28.30
2019-04-01T12:32:51.961Z,27.70
2019-04-01T12:35:19.325Z,27.30
2019-04-01T12:37:46.424Z,27.50
2019-04-01T12:40:13.193Z,28.10
2019-04-01T12:42:39.880Z,28.30
2019-04-01T12:45:06.646Z,27.80
2019-04-01T12:47:33.459Z,27.70
2019-04-01T12:50:00.263Z,27.40
2019-04-01T12:52:26.931Z,27.00
2019-04-01T12:54:53.502Z,27.10
2019-04-01T12:57:20.974Z,26.80
2019-04-01T12:59:47.789Z,27.60
2019-04-01T13:02:17.831Z,27.90
2019-04-01T13:04:42.868Z,27.90
2019-04-01T13:07:09.396Z,28.20
2019-04-01T13:09:35.827Z,27.40
2019-04-01T13:12:03.000Z,26.40
2019-04-01T13:14:29.697Z,25.40
2019-04-01T13:16:56.294Z,25.90
2019-04-01T13:19:23.002Z,26.50
2019-04-01T13:21:49.705Z,27.00
2019-04-01T13:24:16.186Z,26.90
2019-04-01T13:26:42.694Z,27.10
2019-04-01T13:29:09.363Z,26.00
2019-04-01T13:31:36.058Z,25.70
2019-04-01T13:34:02.734Z,25.30
2019-04-01T13:36:29.425Z,25.40
2019-04-01T13:38:55.985Z,25.20
2019-04-01T13:41:25.064Z,25.30
2019-04-01T13:43:50.968Z,25.50
2019-04-01T13:46:18.400Z,26.10
2019-04-01T13:48:57.011Z,26.40
2019-04-01T13:51:14.420Z,25.60
2019-04-01T13:53:42.229Z,24.70
2019-04-01T13:56:10.416Z,25.70
2019-04-01T13:58:39.203Z,24.80
2019-04-01T14:01:06.033Z,24.50
2019-04-01T14:03:32.626Z,25.00
2019-04-01T14:05:59.178Z,25.00
2019-04-01T14:08:25.833Z,24.70
2019-04-01T14:10:52.536Z,23.90
2019-04-01T14:13:19.052Z,24.80
2019-04-01T14:15:45.728Z,24.20
2019-04-01T14:18:12.417Z,23.80
2019-04-01T14:20:39.010Z,23.50
2019-04-01T14:23:05.580Z,24.40
2019-04-01T14:25:34.822Z,24.20
2019-04-01T14:28:00.530Z,23.50
2019-04-01T14:30:27.239Z,23.60
2019-04-01T14:32:53.781Z,24.20
2019-04-01T14:35:23.541Z,23.80
2019-04-01T14:37:48.947Z,24.50
2019-04-01T14:40:15.664Z,24.10
2019-04-01T14:42:42.245Z,24.20
2019-04-01T14:45:09.207Z,23.70
2019-04-01T14:47:36.027Z,24.00
2019-04-01T14:50:07.383Z,24.00
2019-04-01T14:52:33.003Z,23.20
2019-04-01T14:54:59.526Z,23.50
2019-04-01T14:57:26.133Z,24.00
2019-04-01T14:59:56.140Z,23.50
2019-04-01T15:02:21.334Z,23.20
2019-04-01T15:04:47.807Z,23.10
2019-04-01T15:07:18.012Z,22.90
2019-04-01T15:09:42.833Z,23.10
2019-04-01T15:12:10.265Z,23.10
2019-04-01T15:14:37.997Z,23.40
2019-04-01T15:17:04.632Z,22.90
2019-04-01T15:19:31.222Z,22.40
2019-04-01T15:21:57.771Z,23.00
2019-04-01T15:24:24.458Z,23.70
2019-04-01T15:26:50.901Z,23.20
2019-04-01T15:29:17.569Z,22.80
2019-04-01T15:31:44.260Z,22.60
2019-04-01T15:34:10.843Z,22.50
2019-04-01T15:36:38.712Z,23.10
2019-04-01T15:39:06.403Z,22.30
2019-04-01T15:41:33.855Z,23.30
2019-04-01T15:44:00.496Z,23.50
2019-04-01T15:46:27.168Z,24.00
2019-04-01T15:48:53.807Z,23.40
2019-04-01T15:51:20.284Z,23.00
2019-04-01T15:53:46.938Z,23.50
2019-04-01T15:56:26.445Z,23.40
2019-04-01T15:58:53.156Z,23.60
2019-04-01T16:01:19.894Z,23.80
2019-04-01T16:03:46.558Z,23.80
2019-04-01T16:06:13.290Z,24.70
2019-04-01T16:08:39.848Z,25.00
2019-04-01T16:11:06.334Z,24.90
2019-04-01T16:13:33.110Z,25.30
2019-04-01T16:15:59.941Z,25.50
2019-04-01T16:18:26.744Z,25.60
2019-04-01T16:20:54.246Z,25.70
2019-04-01T16:23:21.636Z,26.10
2019-04-01T16:25:48.258Z,25.10
2019-04-01T16:28:14.973Z,25.40
2019-04-01T16:30:41.500Z,27.00
2019-04-01T16:33:08.157Z,27.30
2019-04-01T16:35:34.803Z,27.80
2019-04-01T16:38:01.519Z,27.80
2019-04-01T16:40:27.972Z,28.00
2019-04-01T16:42:55.810Z,28.00
2019-04-01T16:45:22.736Z,28.70
2019-04-01T16:47:50.540Z,28.40
2019-04-01T16:50:17.271Z,28.50
2019-04-01T16:52:43.912Z,28.70
2019-04-01T16:55:10.814Z,28.50
2019-04-01T16:57:37.489Z,29.20
2019-04-01T17:00:06.851Z,29.50
2019-04-01T17:02:33.622Z,29.50
2019-04-01T17:05:00.486Z,29.80
2019-04-01T17:07:27.360Z,30.00
2019-04-01T17:09:54.056Z,30.40
2019-04-01T17:12:20.739Z,30.10
2019-04-01T17:14:47.329Z,29.90
2019-04-01T17:17:13.995Z,30.60
2019-04-01T17:19:40.705Z,30.50
2019-04-01T17:22:07.364Z,31.00
2019-04-01T17:24:34.089Z,31.30
2019-04-01T17:27:04.477Z,31.60
2019-04-01T17:29:43.950Z,31.80
2019-04-01T17:32:10.595Z,32.40
2019-04-01T17:34:37.202Z,33.60
2019-04-01T17:37:03.911Z,34.40
2019-04-01T17:39:30.688Z,35.10
2019-04-01T17:41:57.879Z,35.10
2019-04-01T17:44:24.427Z,34.70
2019-04-01T17:46:51.103Z,35.30
2019-04-01T17:49:17.905Z,35.30
2019-04-01T17:51:44.495Z,36.80
2019-04-01T17:54:10.955Z,35.80
2019-04-01T17:56:37.562Z,35.60
2019-04-01T17:59:04.238Z,36.10
2019-04-01T18:01:30.953Z,37.50
2019-04-01T18:03:57.672Z,36.60
2019-04-01T18:06:24.384Z,37.20
2019-04-01T18:08:51.045Z,37.30
2019-04-01T18:11:17.588Z,38.30
2019-04-01T18:13:44.104Z,36.40
2019-04-01T18:16:10.807Z,36.70
2019-04-01T18:18:38.907Z,36.60
2019-04-01T18:21:05.690Z,37.20
2019-04-01T18:23:32.381Z,37.10
2019-04-01T18:25:59.058Z,37.00
2019-04-01T18:28:25.507Z,36.70
2019-04-01T18:30:52.217Z,36.80
2019-04-01T18:33:19.941Z,37.10
2019-04-01T18:35:46.868Z,37.20
2019-04-01T18:38:13.545Z,37.10
2019-04-01T18:40:40.391Z,37.50
2019-04-01T18:43:07.028Z,37.60
2019-04-01T18:45:33.952Z,37.70
2019-04-01T18:48:00.728Z,37.90
2019-04-01T18:50:27.348Z,37.90
2019-04-01T18:52:54.950Z,38.30
2019-04-01T18:55:21.677Z,38.00
2019-04-01T18:57:48.395Z,38.00
2019-04-01T19:00:15.539Z,38.10
2019-04-01T19:02:42.561Z,37.90
2019-04-01T19:05:10.039Z,38.20
2019-04-01T19:07:37.065Z,38.20
2019-04-01T19:10:06.712Z,37.90
2019-04-01T19:12:33.826Z,38.20
2019-04-01T19:15:02.285Z,38.40
2019-04-01T19:17:34.978Z,38.60
2019-04-01T19:20:01.762Z,38.80
2019-04-01T19:22:28.477Z,39.70
2019-04-01T19:24:54.995Z,38.60
2019-04-01T19:27:22.126Z,38.40
2019-04-01T19:29:49.139Z,38.30
2019-04-01T19:32:15.865Z,38.40
2019-04-01T19:34:42.511Z,38.40
2019-04-01T19:37:09.050Z,38.40
2019-04-01T19:39:35.653Z,38.50
2019-04-01T19:42:02.416Z,38.70
2019-04-01T19:44:29.011Z,39.10
2019-04-01T19:46:55.463Z,39.40
2019-04-01T19:49:22.046Z,39.30
2019-04-01T19:51:48.711Z,39.20
2019-04-01T19:54:16.547Z,39.20
2019-04-01T19:56:43.129Z,39.00
2019-04-01T19:59:09.710Z,39.20
2019-04-01T20:01:36.656Z,39.40
2019-04-01T20:04:03.468Z,39.50
2019-04-01T20:06:30.029Z,39.30
2019-04-01T20:08:56.608Z,39.00
2019-04-01T20:11:23.288Z,39.00
2019-04-01T20:13:49.747Z,39.30
2019-04-01T20:16:16.237Z,39.40
2019-04-01T20:18:42.692Z,39.30
2019-04-01T20:21:09.269Z,39.40
2019-04-01T20:23:35.871Z,39.20
2019-04-01T20:26:03.339Z,39.30
2019-04-01T20:28:31.032Z,39.50
2019-04-01T20:30:57.743Z,39.20
2019-04-01T20:33:44.303Z,39.50
2019-04-01T20:36:10.873Z,39.20
2019-04-01T20:38:37.656Z,39.10
2019-04-01T20:41:04.313Z,39.20
2019-04-01T20:43:32.222Z,39.30
2019-04-01T20:45:59.016Z,39.30
2019-04-01T20:48:25.705Z,39.40
2019-04-01T20:50:54.911Z,39.80
2019-04-01T20:53:21.092Z,39.80
2019-04-01T21:09:01.498Z,39.40
2019-04-01T21:11:30.159Z,40.10
2019-04-01T21:13:56.693Z,39.90
2019-04-01T21:16:23.290Z,39.80
2019-04-01T21:18:49.899Z,40.20
2019-04-01T21:21:17.199Z,40.40
2019-04-01T21:23:44.180Z,40.20
2019-04-01T21:26:10.908Z,40.40
2019-04-01T21:28:37.541Z,40.20
2019-04-01T21:31:04.154Z,40.10
2019-04-01T21:33:30.728Z,40.50
2019-04-01T21:36:08.004Z,40.30
2019-04-01T21:38:34.652Z,40.40
2019-04-01T21:41:01.379Z,40.60
2019-04-01T21:43:29.373Z,40.80
2019-04-01T21:45:56.118Z,41.00
2019-04-01T21:48:22.725Z,40.90
2019-04-01T21:50:49.365Z,40.90
2019-04-01T21:53:15.960Z,40.80
2019-04-01T21:55:42.471Z,40.60
2019-04-01T21:58:09.053Z,40.80
2019-04-01T22:00:52.475Z,40.70
2019-04-01T22:03:19.541Z,41.10
2019-04-01T22:05:46.388Z,41.30
2019-04-01T22:08:25.834Z,41.00
2019-04-01T22:10:52.460Z,41.10
2019-04-01T22:13:20.487Z,41.10
2019-04-01T22:15:47.170Z,41.20
2019-04-01T22:18:14.349Z,41.10
2019-04-01T22:20:42.632Z,41.30
2019-04-01T22:23:22.317Z,41.60
2019-04-01T22:25:48.847Z,42.20
2019-04-01T22:28:15.355Z,43.00
2019-04-01T22:30:41.940Z,43.60
2019-04-01T22:33:08.561Z,43.50
2019-04-01T22:35:38.879Z,43.80
2019-04-01T22:38:03.791Z,43.60
2019-04-01T22:40:30.601Z,43.80
2019-04-01T22:42:57.911Z,44.10
2019-04-01T22:45:24.484Z,44.30
2019-04-01T22:47:51.217Z,44.30
2019-04-01T22:50:17.707Z,44.20
2019-04-01T22:52:44.425Z,44.00
2019-04-01T22:55:11.051Z,43.50
2019-04-01T22:57:37.765Z,43.30
2019-04-01T23:00:04.773Z,43.00
2019-04-01T23:02:33.158Z,43.10
2019-04-01T23:04:59.880Z,43.00
2019-04-01T23:07:26.447Z,43.40
2019-04-01T23:09:53.091Z,43.50
2019-04-01T23:12:19.843Z,44.00
2019-04-01T23:14:46.760Z,44.40
2019-04-01T23:17:13.367Z,44.30
2019-04-01T23:19:40.181Z,44.20
2019-04-01T23:22:08.111Z,44.90
2019-04-01T23:24:35.609Z,43.90
2019-04-01T23:27:02.333Z,43.50
2019-04-01T23:29:28.805Z,43.70
2019-04-01T23:31:55.537Z,43.80
2019-04-01T23:34:22.115Z,43.70
2019-04-01T23:36:48.833Z,44.00
2019-04-01T23:39:15.531Z,44.00
2019-04-01T23:41:42.162Z,44.60
2019-04-01T23:44:08.635Z,43.50
2019-04-01T23:46:35.373Z,43.80
2019-04-01T23:49:02.081Z,43.60
2019-04-01T23:51:28.599Z,44.10
2019-04-01T23:53:55.179Z,43.70
2019-04-01T23:56:21.719Z,43.80
2019-04-01T23:58:48.320Z,43.80
